Dades meteomassalio
Diari Summary for Noviembre 9, 2017 Units:  Metric    English   Both
« Previous Day
Next Day »
Diari Semanal Mensual Anual Personalitzat
  Maxima: Minima: Mijana:
Temperatura: 13.9 °C 4.4 °C 8.4 °C
Rosada: 5.2 °C 0.0 °C 2.8 °C
Humitat: 77 % 52 % 69 %
Velocitat del vent: 42.6 km/h 0.0 km/h 23.8 km/h
Racha vent: 42.6 km/h - -
Vent:- - NW
Pressio: 1029.3 hPa 1025.6 hPa -
Pluja: 0.0 mm    
Historical Graphs
 
 
Tabular Data for Noviembre 9, 2017
Time Temperature Dew Point Pressure Wind Wind Speed Wind Gust Humidity Rainfall Rate (Hourly) solar Conditions
00:04 6.1 °C 1.8 °C 1026.0 hPa NW 27.8 km/h 27.8 km/h 74 % 0.0 mm 0.0 W/m2 CLR
00:09 6.1 °C 1.8 °C 1026.0 hPa NW 31.5 km/h 31.5 km/h 74 % 0.0 mm 0.0 W/m2 CLR
00:14 6.1 °C 1.8 °C 1026.0 hPa NNW 19.3 km/h 19.3 km/h 74 % 0.0 mm 0.0 W/m2 CLR
00:19 6.1 °C 1.8 °C 1026.0 hPa NW 18.5 km/h 18.5 km/h 74 % 0.0 mm 0.0 W/m2 CLR
00:24 6.1 °C 1.8 °C 1026.0 hPa NW 25.9 km/h 25.9 km/h 74 % 0.0 mm 0.0 W/m2 CLR
00:29 6.1 °C 1.6 °C 1026.3 hPa WNW 18.5 km/h 18.5 km/h 73 % 0.0 mm 0.0 W/m2 CLR
00:34 5.6 °C 1.3 °C 1026.3 hPa NW 16.7 km/h 16.7 km/h 74 % 0.0 mm 0.0 W/m2 CLR
00:39 5.6 °C 1.3 °C 1026.3 hPa NW 18.5 km/h 18.5 km/h 74 % 0.0 mm 0.0 W/m2 CLR
00:44 5.6 °C 1.3 °C 1026.3 hPa NW 18.5 km/h 18.5 km/h 74 % 0.0 mm 0.0 W/m2 CLR
00:49 5.6 °C 1.3 °C 1026.6 hPa NW 16.7 km/h 16.7 km/h 74 % 0.0 mm 0.0 W/m2 CLR
00:54 5.6 °C 1.3 °C 1026.6 hPa NNW 20.4 km/h 20.4 km/h 74 % 0.0 mm 0.0 W/m2 CLR
00:59 5.6 °C 1.3 °C 1026.6 hPa NW 18.5 km/h 18.5 km/h 74 % 0.0 mm 0.0 W/m2 CLR
01:04 5.6 °C 1.3 °C 1026.6 hPa NNW 20.4 km/h 20.4 km/h 74 % 0.0 mm 0.0 W/m2 CLR
01:09 5.6 °C 1.3 °C 1026.6 hPa NW 25.9 km/h 25.9 km/h 74 % 0.0 mm 0.0 W/m2 CLR
01:15 5.6 °C 1.3 °C 1026.6 hPa NW 24.1 km/h 24.1 km/h 74 % 0.0 mm 0.0 W/m2 CLR
01:20 5.6 °C 1.1 °C 1026.6 hPa NNW 18.5 km/h 18.5 km/h 73 % 0.0 mm 0.0 W/m2 CLR
01:25 5.6 °C 1.3 °C 1026.6 hPa NW 19.3 km/h 19.3 km/h 74 % 0.0 mm 0.0 W/m2 CLR
01:30 5.6 °C 1.3 °C 1026.6 hPa NW 24.1 km/h 24.1 km/h 74 % 0.0 mm 0.0 W/m2 CLR
01:35 5.6 °C 1.3 °C 1026.3 hPa NW 20.4 km/h 20.4 km/h 74 % 0.0 mm 0.0 W/m2 CLR
01:40 5.6 °C 1.3 °C 1026.3 hPa NW 20.4 km/h 20.4 km/h 74 % 0.0 mm 0.0 W/m2 CLR
01:45 5.6 °C 1.3 °C 1026.3 hPa WNW 16.7 km/h 16.7 km/h 74 % 0.0 mm 0.0 W/m2 CLR
01:50 5.6 °C 1.3 °C 1026.6 hPa NW 18.5 km/h 18.5 km/h 74 % 0.0 mm 0.0 W/m2 CLR
01:55 5.6 °C 1.3 °C 1026.6 hPa WNW 16.7 km/h 16.7 km/h 74 % 0.0 mm 0.0 W/m2 CLR
02:00 5.0 °C 0.7 °C 1026.3 hPa NW 20.4 km/h 20.4 km/h 74 % 0.0 mm 0.0 W/m2 CLR
02:05 5.0 °C 0.7 °C 1026.6 hPa WNW 19.3 km/h 19.3 km/h 74 % 0.0 mm 0.0 W/m2 CLR
02:10 5.0 °C 0.7 °C 1026.3 hPa WNW 13.0 km/h 13.0 km/h 74 % 0.0 mm 0.0 W/m2 CLR
02:15 5.0 °C 0.7 °C 1026.6 hPa NW 16.7 km/h 16.7 km/h 74 % 0.0 mm 0.0 W/m2 CLR
02:20 5.0 °C 0.7 °C 1026.6 hPa NW 14.8 km/h 14.8 km/h 74 % 0.0 mm 0.0 W/m2 CLR
02:25 4.4 °C 0.2 °C 1026.6 hPa NW 14.8 km/h 14.8 km/h 74 % 0.0 mm 0.0 W/m2 CLR
02:30 4.4 °C 0.2 °C 1026.6 hPa NW 13.0 km/h 13.0 km/h 74 % 0.0 mm 0.0 W/m2 CLR
02:35 4.4 °C 0.2 °C 1026.3 hPa WNW 18.5 km/h 18.5 km/h 74 % 0.0 mm 0.0 W/m2 CLR
02:40 4.4 °C 0.2 °C 1026.3 hPa WNW 16.7 km/h 16.7 km/h 74 % 0.0 mm 0.0 W/m2 CLR
02:45 4.4 °C 0.2 °C 1026.3 hPa NW 18.5 km/h 18.5 km/h 74 % 0.0 mm 0.0 W/m2 CLR
02:50 4.4 °C 0.2 °C 1026.3 hPa WNW 18.5 km/h 18.5 km/h 74 % 0.0 mm 0.0 W/m2 CLR
02:55 5.0 °C 0.7 °C 1026.3 hPa NW 18.5 km/h 18.5 km/h 74 % 0.0 mm 0.0 W/m2 CLR
03:00 5.0 °C 0.6 °C 1026.3 hPa NW 18.5 km/h 18.5 km/h 73 % 0.0 mm 0.0 W/m2 CLR
03:05 5.0 °C 0.6 °C 1026.3 hPa WNW 16.7 km/h 16.7 km/h 73 % 0.0 mm 0.0 W/m2 CLR
03:10 5.6 °C 1.1 °C 1026.3 hPa NW 18.5 km/h 18.5 km/h 73 % 0.0 mm 0.0 W/m2 CLR
03:15 5.6 °C 1.1 °C 1026.3 hPa WNW 22.2 km/h 22.2 km/h 73 % 0.0 mm 0.0 W/m2 CLR
03:20 5.0 °C 0.6 °C 1026.3 hPa West 16.7 km/h 16.7 km/h 73 % 0.0 mm 0.0 W/m2 CLR
03:25 5.0 °C 0.7 °C 1026.3 hPa WNW 18.5 km/h 18.5 km/h 74 % 0.0 mm 0.0 W/m2 CLR
03:30 5.0 °C 0.7 °C 1026.3 hPa WNW 16.7 km/h 16.7 km/h 74 % 0.0 mm 0.0 W/m2 CLR
03:35 4.4 °C 0.2 °C 1026.3 hPa WNW 16.7 km/h 16.7 km/h 74 % 0.0 mm 0.0 W/m2 CLR
03:40 4.4 °C 0.0 °C 1026.0 hPa NW 18.5 km/h 18.5 km/h 73 % 0.0 mm 0.0 W/m2 CLR
03:45 4.4 °C 0.0 °C 1026.0 hPa NW 22.2 km/h 22.2 km/h 73 % 0.0 mm 0.0 W/m2 CLR
03:50 5.0 °C 0.6 °C 1026.0 hPa WNW 16.7 km/h 16.7 km/h 73 % 0.0 mm 0.0 W/m2 CLR
03:55 5.0 °C 0.6 °C 1026.0 hPa WNW 16.7 km/h 16.7 km/h 73 % 0.0 mm 0.0 W/m2 CLR
04:00 5.0 °C 0.6 °C 1026.0 hPa WNW 18.5 km/h 18.5 km/h 73 % 0.0 mm 0.0 W/m2 CLR
04:05 5.0 °C 0.6 °C 1026.0 hPa NNW 20.4 km/h 20.4 km/h 73 % 0.0 mm 0.0 W/m2 CLR
04:10 5.0 °C 0.6 °C 1026.0 hPa NW 18.5 km/h 18.5 km/h 73 % 0.0 mm 0.0 W/m2 CLR
04:19 5.0 °C 0.6 °C 1025.6 hPa NW 18.5 km/h 18.5 km/h 73 % 0.0 mm 0.0 W/m2 CLR
04:21 5.6 °C 1.1 °C 1026.0 hPa NW 20.9 km/h 20.9 km/h 73 % 0.0 mm 0.0 W/m2 CLR
04:26 5.6 °C 1.1 °C 1026.0 hPa NW 20.4 km/h 20.4 km/h 73 % 0.0 mm 0.0 W/m2 CLR
04:27 5.6 °C 1.1 °C 1026.0 hPa NW 20.4 km/h 20.4 km/h 73 % 0.0 mm 0.0 W/m2 CLR
04:28 5.6 °C 1.1 °C 1026.0 hPa NW 22.2 km/h 22.2 km/h 73 % 0.0 mm 0.0 W/m2 CLR
04:31 5.6 °C 1.1 °C 1025.6 hPa NW 24.1 km/h 24.1 km/h 73 % 0.0 mm 0.0 W/m2 CLR
04:36 5.6 °C 1.1 °C 1026.0 hPa WNW 18.5 km/h 18.5 km/h 73 % 0.0 mm 0.0 W/m2 CLR
04:41 5.6 °C 1.1 °C 1026.0 hPa WNW 18.5 km/h 18.5 km/h 73 % 0.0 mm 0.0 W/m2 CLR
04:42 5.6 °C 1.1 °C 1026.0 hPa WNW 24.1 km/h 24.1 km/h 73 % 0.0 mm 0.0 W/m2 CLR
04:47 5.6 °C 1.1 °C 1026.0 hPa NW 22.2 km/h 22.2 km/h 73 % 0.0 mm 0.0 W/m2 CLR
04:52 5.6 °C 1.1 °C 1026.0 hPa NW 22.2 km/h 22.2 km/h 73 % 0.0 mm 0.0 W/m2 CLR
04:53 5.6 °C 1.1 °C 1026.0 hPa NW 20.4 km/h 20.4 km/h 73 % 0.0 mm 0.0 W/m2 CLR
04:58 5.6 °C 1.1 °C 1026.0 hPa NW 18.5 km/h 18.5 km/h 73 % 0.0 mm 0.0 W/m2 CLR
05:03 5.6 °C 1.1 °C 1026.0 hPa WNW 20.4 km/h 20.4 km/h 73 % 0.0 mm 0.0 W/m2 CLR
05:08 5.6 °C 1.1 °C 1026.0 hPa NW 18.5 km/h 18.5 km/h 73 % 0.0 mm 0.0 W/m2 CLR
05:13 5.6 °C 1.1 °C 1026.0 hPa NW 17.7 km/h 17.7 km/h 73 % 0.0 mm 0.0 W/m2 CLR
05:18 5.6 °C 1.1 °C 1026.0 hPa NW 25.7 km/h 25.7 km/h 73 % 0.0 mm 0.0 W/m2 CLR
05:23 5.6 °C 1.1 °C 1026.0 hPa NW 20.4 km/h 20.4 km/h 73 % 0.0 mm 0.0 W/m2 CLR
05:28 5.6 °C 1.1 °C 1026.0 hPa WNW 16.1 km/h 16.1 km/h 73 % 0.0 mm 0.0 W/m2 CLR
05:29 5.6 °C 1.1 °C 1026.0 hPa NNW 16.7 km/h 16.7 km/h 73 % 0.0 mm 0.0 W/m2 CLR
05:34 5.6 °C 1.1 °C 1026.0 hPa WNW 16.7 km/h 16.7 km/h 73 % 0.0 mm 0.0 W/m2 CLR
05:39 5.6 °C 1.3 °C 1026.0 hPa NW 18.5 km/h 18.5 km/h 74 % 0.0 mm 0.0 W/m2 CLR
05:44 5.6 °C 1.1 °C 1026.3 hPa WNW 16.7 km/h 16.7 km/h 73 % 0.0 mm 0.0 W/m2 CLR
05:49 5.6 °C 1.1 °C 1026.3 hPa NW 16.7 km/h 16.7 km/h 73 % 0.0 mm 0.0 W/m2 CLR
05:54 5.6 °C 1.1 °C 1026.0 hPa WNW 13.0 km/h 13.0 km/h 73 % 0.0 mm 0.0 W/m2 CLR
05:59 5.6 °C 1.1 °C 1026.0 hPa WNW 14.8 km/h 14.8 km/h 73 % 0.0 mm 0.0 W/m2 CLR
06:04 5.6 °C 1.1 °C 1026.0 hPa NW 9.7 km/h 9.7 km/h 73 % 0.0 mm 0.0 W/m2 CLR
06:09 5.6 °C 1.1 °C 1026.0 hPa WNW 9.7 km/h 9.7 km/h 73 % 0.0 mm 0.0 W/m2 CLR
06:14 5.6 °C 1.1 °C 1026.0 hPa West 16.1 km/h 16.1 km/h 73 % 0.0 mm 0.0 W/m2 CLR
06:20 5.6 °C 1.1 °C 1026.0 hPa WNW 11.1 km/h 11.1 km/h 73 % 0.0 mm 0.0 W/m2 CLR
06:24 5.6 °C 1.1 °C 1026.0 hPa NW 14.8 km/h 14.8 km/h 73 % 0.0 mm 0.0 W/m2 CLR
06:30 5.6 °C 1.1 °C 1026.3 hPa Calm     73 % 0.0 mm 0.0 W/m2 CLR
06:35 5.6 °C 1.1 °C 1026.0 hPa North 16.1 km/h 16.1 km/h 73 % 0.0 mm 0.0 W/m2 CLR
06:40 6.1 °C 1.8 °C 1026.3 hPa NW 13.0 km/h 13.0 km/h 74 % 0.0 mm 0.0 W/m2 CLR
06:45 6.1 °C 1.6 °C 1026.3 hPa NW 16.7 km/h 16.7 km/h 73 % 0.0 mm 0.0 W/m2 CLR
06:50 6.1 °C 1.6 °C 1026.3 hPa NW 13.0 km/h 13.0 km/h 73 % 0.0 mm 0.0 W/m2 CLR
06:55 6.1 °C 1.6 °C 1026.3 hPa NNW 11.1 km/h 11.1 km/h 73 % 0.0 mm 0.0 W/m2 CLR
07:00 6.1 °C 1.6 °C 1026.3 hPa NW 13.0 km/h 13.0 km/h 73 % 0.0 mm 0.0 W/m2 CLR
07:05 6.1 °C 1.6 °C 1026.3 hPa NW 7.4 km/h 7.4 km/h 73 % 0.0 mm 0.0 W/m2 CLR
07:10 6.1 °C 1.6 °C 1026.6 hPa NNW 16.7 km/h 16.7 km/h 73 % 0.0 mm 0.0 W/m2 CLR
07:15 6.1 °C 1.6 °C 1026.3 hPa NNW 9.3 km/h 9.5 km/h 73 % 0.0 mm 0.0 W/m2 CLR
07:20 6.1 °C 1.6 °C 1026.3 hPa NW 14.8 km/h 14.8 km/h 73 % 0.0 mm 0.0 W/m2 CLR
07:25 6.7 °C 2.2 °C 1026.3 hPa North 14.8 km/h 14.8 km/h 73 % 0.0 mm 0.0 W/m2 CLR
07:30 6.7 °C 2.2 °C 1026.3 hPa NW 13.0 km/h 13.0 km/h 73 % 0.0 mm 0.0 W/m2 CLR
07:35 6.7 °C 2.2 °C 1026.3 hPa NW 16.7 km/h 16.7 km/h 73 % 0.0 mm 0.0 W/m2 OVC
07:37 6.7 °C 2.2 °C 1026.3 hPa WNW 14.8 km/h 14.8 km/h 73 % 0.0 mm 0.0 W/m2 OVC
07:42 6.7 °C 2.2 °C 1026.3 hPa WNW 9.3 km/h 9.3 km/h 73 % 0.0 mm 5.0 W/m2 OVC
07:47 6.7 °C 2.2 °C 1026.6 hPa NW 7.4 km/h 7.6 km/h 73 % 0.0 mm 7.0 W/m2 OVC
07:52 6.7 °C 2.2 °C 1026.6 hPa West 14.8 km/h 14.8 km/h 73 % 0.0 mm 12.0 W/m2 OVC
07:57 6.7 °C 2.2 °C 1026.6 hPa NNW 9.3 km/h 9.3 km/h 73 % 0.0 mm 16.0 W/m2 OVC
08:02 6.7 °C 2.2 °C 1026.6 hPa NNW 8.0 km/h 8.0 km/h 73 % 0.0 mm 16.0 W/m2 OVC
08:07 6.7 °C 2.2 °C 1026.6 hPa NW 20.4 km/h 20.4 km/h 73 % 0.0 mm 25.0 W/m2 OVC
08:12 6.7 °C 2.2 °C 1027.0 hPa NNW 22.5 km/h 22.5 km/h 73 % 0.0 mm 21.0 W/m2 OVC
08:17 6.7 °C 2.2 °C 1027.0 hPa NNW 18.5 km/h 18.5 km/h 73 % 0.0 mm 21.0 W/m2 OVC
08:22 6.7 °C 2.2 °C 1027.0 hPa NW 25.9 km/h 25.9 km/h 73 % 0.0 mm 25.0 W/m2 OVC
08:27 6.7 °C 2.2 °C 1027.0 hPa NNW 27.8 km/h 27.8 km/h 73 % 0.0 mm 26.0 W/m2 OVC
08:32 7.2 °C 2.7 °C 1027.0 hPa North 20.4 km/h 20.4 km/h 73 % 0.0 mm 28.0 W/m2 OVC
08:37 7.2 °C 2.9 °C 1027.3 hPa NW 22.2 km/h 22.2 km/h 74 % 0.0 mm 39.0 W/m2 OVC
08:42 7.2 °C 2.9 °C 1027.3 hPa NNW 20.9 km/h 20.9 km/h 74 % 0.0 mm 46.0 W/m2 OVC
08:47 7.2 °C 2.9 °C 1027.3 hPa NW 14.8 km/h 14.8 km/h 74 % 0.0 mm 49.0 W/m2 BKN
08:52 7.2 °C 2.7 °C 1027.3 hPa North 14.8 km/h 14.8 km/h 73 % 0.0 mm 69.0 W/m2 SCT
08:57 7.2 °C 2.7 °C 1027.3 hPa NNW 18.5 km/h 18.5 km/h 73 % 0.0 mm 69.0 W/m2 FEW
09:02 7.8 °C 3.2 °C 1027.7 hPa NNW 18.5 km/h 18.5 km/h 73 % 0.0 mm 88.0 W/m2 FEW
09:07 7.8 °C 3.2 °C 1027.7 hPa NNW 25.9 km/h 25.9 km/h 73 % 0.0 mm 98.0 W/m2 CLR
09:12 7.8 °C 3.1 °C 1027.7 hPa WNW 18.5 km/h 18.5 km/h 72 % 0.0 mm 113.0 W/m2 CLR
09:17 7.8 °C 3.2 °C 1027.3 hPa NNW 16.1 km/h 16.1 km/h 73 % 0.0 mm 128.0 W/m2 CLR
09:22 7.8 °C 3.1 °C 1027.3 hPa ESE 19.3 km/h 19.3 km/h 72 % 0.0 mm 223.0 W/m2 CLR
09:27 8.3 °C 3.6 °C 1027.3 hPa NW 25.9 km/h 25.9 km/h 72 % 0.0 mm 160.0 W/m2 CLR
09:32 8.3 °C 3.6 °C 1027.3 hPa NNW 27.8 km/h 27.8 km/h 72 % 0.0 mm 239.0 W/m2 CLR
09:37 8.9 °C 3.9 °C 1027.7 hPa NNW 25.7 km/h 25.7 km/h 71 % 0.0 mm 146.0 W/m2 CLR
09:42 8.3 °C 3.4 °C 1027.7 hPa NW 35.2 km/h 35.2 km/h 71 % 0.0 mm 288.0 W/m2 CLR
09:47 8.9 °C 3.9 °C 1027.7 hPa NW 24.1 km/h 24.1 km/h 71 % 0.0 mm 323.0 W/m2 CLR
09:52 8.9 °C 3.7 °C 1027.3 hPa NNW 18.5 km/h 18.5 km/h 70 % 0.0 mm 410.0 W/m2 CLR
09:57 9.4 °C 4.1 °C 1027.7 hPa NNE 33.8 km/h 33.8 km/h 69 % 0.0 mm 295.0 W/m2 CLR
10:02 9.4 °C 4.1 °C 1027.3 hPa NW 11.1 km/h 11.1 km/h 69 % 0.0 mm 387.0 W/m2 CLR
10:07 9.4 °C 3.8 °C 1027.3 hPa North 30.6 km/h 30.6 km/h 68 % 0.0 mm 294.0 W/m2 CLR
10:12 9.4 °C 3.8 °C 1027.3 hPa NNW 35.4 km/h 35.4 km/h 68 % 0.0 mm 167.0 W/m2 CLR
10:17 9.4 °C 3.8 °C 1027.3 hPa NNW 35.2 km/h 35.2 km/h 68 % 0.0 mm 183.0 W/m2 CLR
10:22 9.4 °C 3.8 °C 1027.7 hPa North 29.6 km/h 29.6 km/h 68 % 0.0 mm 132.0 W/m2 CLR
10:27 9.4 °C 3.8 °C 1027.3 hPa NNW 38.9 km/h 38.9 km/h 68 % 0.0 mm 125.0 W/m2 CLR
10:32 10.0 °C 4.2 °C 1027.7 hPa NNW 29.6 km/h 29.6 km/h 67 % 0.0 mm 478.0 W/m2 CLR
10:37 10.0 °C 3.9 °C 1027.3 hPa North 27.8 km/h 27.8 km/h 66 % 0.0 mm 399.0 W/m2 CLR
10:42 10.6 °C 4.4 °C 1027.3 hPa NW 24.1 km/h 24.1 km/h 66 % 0.0 mm 183.0 W/m2 CLR
10:47 10.6 °C 4.4 °C 1027.7 hPa NW 31.5 km/h 31.5 km/h 66 % 0.0 mm 151.0 W/m2 CLR
10:52 10.0 °C 3.9 °C 1027.7 hPa North 31.5 km/h 31.5 km/h 66 % 0.0 mm 297.0 W/m2 CLR
10:57 10.6 °C 4.4 °C 1027.7 hPa North 31.5 km/h 31.5 km/h 66 % 0.0 mm 167.0 W/m2 CLR
11:02 10.6 °C 4.4 °C 1027.7 hPa NW 42.6 km/h 42.6 km/h 66 % 0.0 mm 176.0 W/m2 CLR
11:07 10.6 °C 4.4 °C 1027.7 hPa North 27.8 km/h 27.8 km/h 66 % 0.0 mm 176.0 W/m2 CLR
11:12 11.1 °C 4.8 °C 1028.0 hPa NNW 31.5 km/h 31.5 km/h 65 % 0.0 mm 480.0 W/m2 CLR
11:22 11.1 °C 4.8 °C 1027.7 hPa NW 31.5 km/h 31.5 km/h 65 % 0.0 mm 220.0 W/m2 CLR
11:27 11.1 °C 4.3 °C 1027.7 hPa North 38.9 km/h 38.9 km/h 63 % 0.0 mm 664.0 W/m2 CLR
11:32 11.1 °C 4.3 °C 1027.7 hPa North 29.6 km/h 29.6 km/h 63 % 0.0 mm 540.0 W/m2 CLR
11:37 11.1 °C 4.3 °C 1027.7 hPa NW 24.1 km/h 24.1 km/h 63 % 0.0 mm 517.0 W/m2 CLR
11:42 11.7 °C 4.6 °C 1027.3 hPa NNW 42.6 km/h 42.6 km/h 62 % 0.0 mm 527.0 W/m2 CLR
11:47 11.7 °C 4.6 °C 1027.3 hPa NW 42.6 km/h 42.6 km/h 62 % 0.0 mm 221.0 W/m2 CLR
11:52 11.1 °C 4.1 °C 1027.7 hPa NNW 38.9 km/h 38.9 km/h 62 % 0.0 mm 522.0 W/m2 CLR
11:57 11.7 °C 4.6 °C 1027.7 hPa NNW 33.8 km/h 33.8 km/h 62 % 0.0 mm 545.0 W/m2 CLR
12:02 11.7 °C 4.4 °C 1027.7 hPa NNW 38.9 km/h 38.9 km/h 61 % 0.0 mm 146.0 W/m2 CLR
12:07 11.1 °C 4.1 °C 1027.3 hPa North 31.5 km/h 31.5 km/h 62 % 0.0 mm 548.0 W/m2 CLR
12:12 11.7 °C 4.4 °C 1027.0 hPa NW 31.5 km/h 31.5 km/h 61 % 0.0 mm 547.0 W/m2 CLR
12:17 11.1 °C 3.9 °C 1026.6 hPa NW 29.6 km/h 29.6 km/h 61 % 0.0 mm 526.0 W/m2 CLR
12:22 11.7 °C 4.4 °C 1026.6 hPa NNW 29.6 km/h 29.6 km/h 61 % 0.0 mm 524.0 W/m2 CLR
12:27 12.2 °C 4.4 °C 1026.6 hPa NW 31.5 km/h 31.5 km/h 59 % 0.0 mm 527.0 W/m2 CLR
12:32 12.2 °C 4.4 °C 1026.6 hPa North 27.8 km/h 27.8 km/h 59 % 0.0 mm 547.0 W/m2 CLR
12:37 12.8 °C 4.9 °C 1026.6 hPa North 31.5 km/h 31.5 km/h 59 % 0.0 mm 570.0 W/m2 CLR
12:42 12.8 °C 4.7 °C 1026.6 hPa North 29.6 km/h 29.6 km/h 58 % 0.0 mm 563.0 W/m2 CLR
12:47 12.8 °C 4.7 °C 1026.6 hPa NNW 25.9 km/h 25.9 km/h 58 % 0.0 mm 227.0 W/m2 CLR
12:52 12.2 °C 4.2 °C 1027.0 hPa NNE 31.5 km/h 31.5 km/h 58 % 0.0 mm 130.0 W/m2 CLR
12:57 11.7 °C 3.9 °C 1026.6 hPa NW 20.9 km/h 20.9 km/h 59 % 0.0 mm 183.0 W/m2 CLR
13:02 11.7 °C 3.9 °C 1026.6 hPa North 32.2 km/h 32.2 km/h 59 % 0.0 mm 200.0 W/m2 CLR
13:07 11.7 °C 3.9 °C 1026.6 hPa North 33.3 km/h 33.3 km/h 59 % 0.0 mm 186.0 W/m2 CLR
13:12 12.2 °C 4.7 °C 1027.0 hPa NW 27.8 km/h 27.8 km/h 60 % 0.0 mm 193.0 W/m2 CLR
13:17 12.2 °C 4.7 °C 1027.0 hPa NNW 32.2 km/h 32.2 km/h 60 % 0.0 mm 202.0 W/m2 CLR
13:22 11.7 °C 3.9 °C 1026.6 hPa NNW 35.2 km/h 35.2 km/h 59 % 0.0 mm 178.0 W/m2 CLR
13:27 11.7 °C 3.9 °C 1026.6 hPa NNW 27.8 km/h 27.8 km/h 59 % 0.0 mm 165.0 W/m2 CLR
13:32 12.2 °C 4.4 °C 1026.3 hPa NNW 29.6 km/h 29.6 km/h 59 % 0.0 mm 439.0 W/m2 CLR
13:37 12.2 °C 4.2 °C 1026.3 hPa NNW 33.3 km/h 33.3 km/h 58 % 0.0 mm 100.0 W/m2 CLR
13:42 12.2 °C 4.4 °C 1026.0 hPa NNW 29.0 km/h 29.0 km/h 59 % 0.0 mm 510.0 W/m2 CLR
13:47 12.8 °C 4.7 °C 1026.0 hPa NW 27.8 km/h 27.8 km/h 58 % 0.0 mm 499.0 W/m2 CLR
13:53 13.3 °C 4.7 °C 1026.0 hPa NW 33.3 km/h 33.3 km/h 56 % 0.0 mm 501.0 W/m2 CLR
13:58 13.9 °C 5.2 °C 1026.0 hPa NW 27.8 km/h 27.8 km/h 56 % 0.0 mm 515.0 W/m2 CLR
14:03 13.9 °C 5.0 °C 1025.6 hPa North 31.5 km/h 31.5 km/h 55 % 0.0 mm 499.0 W/m2 CLR
14:08 13.9 °C 5.0 °C 1026.0 hPa NW 27.8 km/h 27.8 km/h 55 % 0.0 mm 104.0 W/m2 CLR
14:13 13.3 °C 4.7 °C 1025.6 hPa NW 31.5 km/h 31.5 km/h 56 % 0.0 mm 480.0 W/m2 CLR
14:18 13.3 °C 4.2 °C 1025.6 hPa NW 31.5 km/h 31.5 km/h 54 % 0.0 mm 452.0 W/m2 CLR
14:23 13.9 °C 4.2 °C 1025.6 hPa North 42.6 km/h 42.6 km/h 52 % 0.0 mm 496.0 W/m2 CLR
14:28 13.3 °C 3.9 °C 1025.6 hPa NW 42.6 km/h 42.6 km/h 53 % 0.0 mm 84.0 W/m2 CLR
14:33 12.8 °C 3.7 °C 1025.6 hPa NNW 35.4 km/h 35.4 km/h 54 % 0.0 mm 257.0 W/m2 CLR
14:38 12.8 °C 3.7 °C 1025.6 hPa North 18.5 km/h 20.9 km/h 54 % 0.0 mm 109.0 W/m2 CLR
14:43 12.8 °C 3.7 °C 1026.0 hPa NNW 33.3 km/h 33.3 km/h 54 % 0.0 mm 139.0 W/m2 CLR
14:48 12.8 °C 3.7 °C 1026.0 hPa NNW 27.8 km/h 27.8 km/h 54 % 0.0 mm 499.0 W/m2 CLR
14:53 13.3 °C 3.9 °C 1025.6 hPa North 37.0 km/h 37.0 km/h 53 % 0.0 mm 120.0 W/m2 CLR
14:58 13.3 °C 3.9 °C 1026.0 hPa NNW 40.7 km/h 40.7 km/h 53 % 0.0 mm 123.0 W/m2 CLR
15:03 12.8 °C 3.7 °C 1026.0 hPa North 31.5 km/h 31.5 km/h 54 % 0.0 mm 84.0 W/m2 CLR
15:08 12.8 °C 3.7 °C 1026.0 hPa North 27.4 km/h 27.4 km/h 54 % 0.0 mm 88.0 W/m2 CLR
15:13 12.2 °C 3.4 °C 1025.6 hPa NNW 31.5 km/h 31.5 km/h 55 % 0.0 mm 121.0 W/m2 CLR
15:18 12.8 °C 3.7 °C 1025.6 hPa NNW 42.6 km/h 42.6 km/h 54 % 0.0 mm 83.0 W/m2 CLR
15:23 12.8 °C 3.7 °C 1025.6 hPa North 31.5 km/h 31.5 km/h 54 % 0.0 mm 200.0 W/m2 CLR
15:28 12.2 °C 3.4 °C 1025.6 hPa NW 24.1 km/h 24.1 km/h 55 % 0.0 mm 95.0 W/m2 CLR
15:33 12.2 °C 3.7 °C 1026.0 hPa North 33.3 km/h 33.3 km/h 56 % 0.0 mm 54.0 W/m2 FEW
15:38 12.2 °C 3.9 °C 1025.6 hPa NW 27.8 km/h 27.8 km/h 57 % 0.0 mm 153.0 W/m2 FEW
15:43 12.8 °C 4.2 °C 1025.6 hPa NW 27.8 km/h 27.8 km/h 56 % 0.0 mm 316.0 W/m2 CLR
15:48 12.8 °C 3.9 °C 1025.6 hPa NNW 29.6 km/h 29.6 km/h 55 % 0.0 mm 77.0 W/m2 CLR
15:53 12.8 °C 3.9 °C 1026.0 hPa NNW 32.2 km/h 32.2 km/h 55 % 0.0 mm 47.0 W/m2 CLR
15:58 12.2 °C 3.7 °C 1026.0 hPa WNW 31.5 km/h 31.5 km/h 56 % 0.0 mm 244.0 W/m2 FEW
16:03 12.2 °C 3.7 °C 1026.0 hPa NNW 31.5 km/h 31.5 km/h 56 % 0.0 mm 42.0 W/m2 SCT
16:08 12.2 °C 3.7 °C 1026.0 hPa NNW 33.3 km/h 33.3 km/h 56 % 0.0 mm 54.0 W/m2 SCT
16:13 12.2 °C 3.7 °C 1026.0 hPa North 27.8 km/h 27.8 km/h 56 % 0.0 mm 65.0 W/m2 SCT
16:18 12.2 °C 3.7 °C 1026.3 hPa NNW 33.8 km/h 33.8 km/h 56 % 0.0 mm 33.0 W/m2 SCT
16:23 11.7 °C 3.2 °C 1026.3 hPa North 25.9 km/h 25.9 km/h 56 % 0.0 mm 33.0 W/m2 SCT
16:28 11.7 °C 3.4 °C 1026.3 hPa NW 27.8 km/h 27.8 km/h 57 % 0.0 mm 32.0 W/m2 BKN
16:33 11.7 °C 3.4 °C 1026.3 hPa NNW 29.0 km/h 29.0 km/h 57 % 0.0 mm 26.0 W/m2 BKN
16:38 11.7 °C 3.4 °C 1026.0 hPa NW 22.2 km/h 22.2 km/h 57 % 0.0 mm 25.0 W/m2 BKN
16:43 11.7 °C 3.4 °C 1026.0 hPa NNW 31.5 km/h 31.5 km/h 57 % 0.0 mm 25.0 W/m2 BKN
16:48 11.1 °C 2.9 °C 1026.3 hPa NNW 24.1 km/h 24.1 km/h 57 % 0.0 mm 25.0 W/m2 BKN
16:53 11.1 °C 2.9 °C 1026.3 hPa North 35.2 km/h 35.2 km/h 57 % 0.0 mm 26.0 W/m2 BKN
16:58 11.1 °C 3.2 °C 1026.3 hPa NNW 22.5 km/h 22.5 km/h 58 % 0.0 mm 33.0 W/m2 BKN
17:03 11.1 °C 3.2 °C 1026.3 hPa NNW 31.5 km/h 31.5 km/h 58 % 0.0 mm 23.0 W/m2 BKN
17:08 11.1 °C 3.2 °C 1026.3 hPa North 29.0 km/h 29.0 km/h 58 % 0.0 mm 21.0 W/m2 BKN
17:13 11.1 °C 3.4 °C 1026.3 hPa NNW 24.1 km/h 24.1 km/h 59 % 0.0 mm 18.0 W/m2 BKN
17:18 11.1 °C 3.4 °C 1026.3 hPa NNW 31.5 km/h 31.5 km/h 59 % 0.0 mm 21.0 W/m2 BKN
17:23 11.1 °C 3.6 °C 1026.3 hPa North 33.8 km/h 33.8 km/h 60 % 0.0 mm 19.0 W/m2 BKN
17:28 11.1 °C 3.6 °C 1026.3 hPa NW 25.9 km/h 25.9 km/h 60 % 0.0 mm 16.0 W/m2 BKN
17:33 11.1 °C 3.6 °C 1026.3 hPa NNW 29.6 km/h 29.6 km/h 60 % 0.0 mm 14.0 W/m2 BKN
17:38 10.6 °C 3.3 °C 1026.3 hPa NNW 31.5 km/h 31.5 km/h 61 % 0.0 mm 11.0 W/m2 BKN
17:43 10.6 °C 3.3 °C 1026.6 hPa NNW 42.6 km/h 42.6 km/h 61 % 0.0 mm 7.0 W/m2 BKN
17:48 10.6 °C 3.6 °C 1026.6 hPa WNW 35.4 km/h 35.4 km/h 62 % 0.0 mm 0.0 W/m2 OVC
17:53 10.6 °C 3.8 °C 1026.6 hPa NNW 29.6 km/h 29.6 km/h 63 % 0.0 mm 0.0 W/m2 OVC
17:54 10.6 °C 3.8 °C 1026.6 hPa NNW 29.6 km/h 29.6 km/h 63 % 0.0 mm 0.0 W/m2 OVC
17:59 10.0 °C 3.3 °C 1026.6 hPa NW 16.7 km/h 16.7 km/h 63 % 0.0 mm 0.0 W/m2 CLR
18:04 10.0 °C 3.5 °C 1026.6 hPa NW 24.1 km/h 24.1 km/h 64 % 0.0 mm 0.0 W/m2 CLR
18:09 10.0 °C 3.7 °C 1026.6 hPa WNW 31.5 km/h 31.5 km/h 65 % 0.0 mm 0.0 W/m2 CLR
18:14 9.4 °C 3.2 °C 1026.6 hPa WNW 35.2 km/h 35.2 km/h 65 % 0.0 mm 0.0 W/m2 CLR
18:19 9.4 °C 3.2 °C 1027.0 hPa WNW 25.9 km/h 25.9 km/h 65 % 0.0 mm 0.0 W/m2 CLR
18:24 9.4 °C 3.2 °C 1027.0 hPa NW 18.5 km/h 18.5 km/h 65 % 0.0 mm 0.0 W/m2 CLR
18:29 9.4 °C 3.4 °C 1027.0 hPa NNW 29.0 km/h 29.0 km/h 66 % 0.0 mm 0.0 W/m2 CLR
18:34 9.4 °C 3.4 °C 1027.3 hPa NW 25.9 km/h 25.9 km/h 66 % 0.0 mm 0.0 W/m2 CLR
18:39 9.4 °C 3.4 °C 1027.3 hPa NW 22.2 km/h 22.2 km/h 66 % 0.0 mm 0.0 W/m2 CLR
18:44 8.9 °C 2.9 °C 1027.3 hPa NW 16.7 km/h 16.7 km/h 66 % 0.0 mm 0.0 W/m2 CLR
18:49 8.9 °C 3.3 °C 1027.3 hPa NNW 31.5 km/h 31.5 km/h 68 % 0.0 mm 0.0 W/m2 CLR
18:54 8.9 °C 3.3 °C 1027.3 hPa NNW 20.9 km/h 20.9 km/h 68 % 0.0 mm 0.0 W/m2 CLR
18:59 9.4 °C 4.1 °C 1027.7 hPa NW 16.7 km/h 16.7 km/h 69 % 0.0 mm 0.0 W/m2 CLR
19:04 8.9 °C 3.5 °C 1027.7 hPa North 20.4 km/h 20.4 km/h 69 % 0.0 mm 0.0 W/m2 CLR
19:09 8.9 °C 3.5 °C 1027.7 hPa WNW 20.4 km/h 20.4 km/h 69 % 0.0 mm 0.0 W/m2 CLR
19:14 8.9 °C 3.5 °C 1027.7 hPa NNW 19.3 km/h 19.3 km/h 69 % 0.0 mm 0.0 W/m2 CLR
19:19 8.9 °C 3.7 °C 1027.7 hPa NNW 14.8 km/h 14.8 km/h 70 % 0.0 mm 0.0 W/m2 CLR
19:24 8.3 °C 3.2 °C 1027.7 hPa WNW 18.5 km/h 18.5 km/h 70 % 0.0 mm 0.0 W/m2 CLR
19:29 8.3 °C 3.4 °C 1027.7 hPa NW 20.4 km/h 20.4 km/h 71 % 0.0 mm 0.0 W/m2 CLR
19:34 8.9 °C 3.9 °C 1028.0 hPa NNW 25.9 km/h 25.9 km/h 71 % 0.0 mm 0.0 W/m2 CLR
19:39 8.9 °C 3.9 °C 1028.0 hPa NW 29.6 km/h 29.6 km/h 71 % 0.0 mm 0.0 W/m2 CLR
19:44 8.9 °C 4.1 °C 1028.0 hPa NNW 33.3 km/h 33.3 km/h 72 % 0.0 mm 0.0 W/m2 CLR
19:49 8.9 °C 4.1 °C 1028.0 hPa NNW 25.9 km/h 25.9 km/h 72 % 0.0 mm 0.0 W/m2 CLR
19:54 8.9 °C 4.3 °C 1028.0 hPa NW 31.5 km/h 31.5 km/h 73 % 0.0 mm 0.0 W/m2 CLR
19:59 8.9 °C 4.3 °C 1028.0 hPa NW 31.5 km/h 31.5 km/h 73 % 0.0 mm 0.0 W/m2 CLR
20:04 8.3 °C 3.8 °C 1028.0 hPa NW 25.9 km/h 25.9 km/h 73 % 0.0 mm 0.0 W/m2 CLR
20:09 8.3 °C 3.8 °C 1028.0 hPa North 31.5 km/h 31.5 km/h 73 % 0.0 mm 0.0 W/m2 CLR
20:14 8.3 °C 3.8 °C 1028.0 hPa NW 22.2 km/h 22.2 km/h 73 % 0.0 mm 0.0 W/m2 CLR
20:19 8.3 °C 3.9 °C 1028.3 hPa NW 31.5 km/h 31.5 km/h 74 % 0.0 mm 0.0 W/m2 CLR
20:24 8.3 °C 3.9 °C 1028.0 hPa WNW 18.5 km/h 18.5 km/h 74 % 0.0 mm 0.0 W/m2 CLR
20:29 8.3 °C 3.9 °C 1028.0 hPa NW 29.6 km/h 29.6 km/h 74 % 0.0 mm 0.0 W/m2 CLR
20:34 8.3 °C 3.9 °C 1028.0 hPa NNW 25.9 km/h 25.9 km/h 74 % 0.0 mm 0.0 W/m2 CLR
20:39 8.3 °C 3.9 °C 1028.0 hPa NW 27.4 km/h 27.4 km/h 74 % 0.0 mm 0.0 W/m2 CLR
20:44 8.3 °C 3.9 °C 1028.3 hPa NW 29.6 km/h 29.6 km/h 74 % 0.0 mm 0.0 W/m2 CLR
20:49 8.3 °C 3.9 °C 1028.3 hPa WNW 22.2 km/h 22.2 km/h 74 % 0.0 mm 0.0 W/m2 CLR
20:54 7.8 °C 3.4 °C 1028.3 hPa WNW 22.2 km/h 22.2 km/h 74 % 0.0 mm 0.0 W/m2 CLR
20:59 7.8 °C 3.4 °C 1028.3 hPa NW 20.9 km/h 20.9 km/h 74 % 0.0 mm 0.0 W/m2 CLR
21:04 7.8 °C 3.4 °C 1028.3 hPa NW 22.5 km/h 22.5 km/h 74 % 0.0 mm 0.0 W/m2 CLR
21:09 7.8 °C 3.4 °C 1028.3 hPa ESE 18.5 km/h 18.5 km/h 74 % 0.0 mm 0.0 W/m2 CLR
21:14 7.8 °C 3.4 °C 1028.3 hPa WNW 25.9 km/h 25.9 km/h 74 % 0.0 mm 0.0 W/m2 CLR
21:19 7.8 °C 3.4 °C 1028.3 hPa NW 18.5 km/h 18.5 km/h 74 % 0.0 mm 0.0 W/m2 CLR
21:24 7.8 °C 3.4 °C 1028.7 hPa NW 18.5 km/h 18.5 km/h 74 % 0.0 mm 0.0 W/m2 CLR
21:29 7.8 °C 3.6 °C 1028.7 hPa WNW 22.2 km/h 22.2 km/h 75 % 0.0 mm 0.0 W/m2 CLR
21:34 7.8 °C 3.6 °C 1028.7 hPa WNW 22.2 km/h 22.2 km/h 75 % 0.0 mm 0.0 W/m2 CLR
21:39 7.8 °C 3.6 °C 1028.7 hPa WNW 18.5 km/h 18.5 km/h 75 % 0.0 mm 0.0 W/m2 CLR
21:44 7.8 °C 3.6 °C 1029.0 hPa NNW 22.2 km/h 22.2 km/h 75 % 0.0 mm 0.0 W/m2 CLR
21:49 7.2 °C 3.1 °C 1029.0 hPa NW 16.7 km/h 16.7 km/h 75 % 0.0 mm 0.0 W/m2 CLR
21:54 7.2 °C 3.1 °C 1028.7 hPa West 16.1 km/h 16.1 km/h 75 % 0.0 mm 0.0 W/m2 CLR
21:59 7.2 °C 3.1 °C 1028.7 hPa West 16.7 km/h 16.7 km/h 75 % 0.0 mm 0.0 W/m2 CLR
22:04 7.2 °C 3.1 °C 1029.0 hPa WNW 14.8 km/h 14.8 km/h 75 % 0.0 mm 0.0 W/m2 CLR
22:09 7.2 °C 3.1 °C 1029.0 hPa NW 22.5 km/h 22.5 km/h 75 % 0.0 mm 0.0 W/m2 CLR
22:14 7.2 °C 3.1 °C 1028.7 hPa WNW 22.2 km/h 22.2 km/h 75 % 0.0 mm 0.0 W/m2 CLR
22:19 7.2 °C 3.1 °C 1029.0 hPa West 24.1 km/h 24.1 km/h 75 % 0.0 mm 0.0 W/m2 CLR
22:24 7.2 °C 3.1 °C 1029.0 hPa WNW 20.4 km/h 20.4 km/h 75 % 0.0 mm 0.0 W/m2 CLR
22:29 7.2 °C 3.1 °C 1029.0 hPa WNW 29.0 km/h 29.0 km/h 75 % 0.0 mm 0.0 W/m2 CLR
22:34 7.8 °C 3.6 °C 1029.0 hPa WNW 22.5 km/h 22.5 km/h 75 % 0.0 mm 0.0 W/m2 CLR
22:39 7.8 °C 3.6 °C 1029.0 hPa WNW 20.4 km/h 20.4 km/h 75 % 0.0 mm 0.0 W/m2 CLR
22:44 7.8 °C 3.8 °C 1029.0 hPa WNW 22.2 km/h 22.2 km/h 76 % 0.0 mm 0.0 W/m2 CLR
22:49 7.8 °C 3.8 °C 1029.0 hPa WNW 20.9 km/h 20.9 km/h 76 % 0.0 mm 0.0 W/m2 CLR
22:54 7.2 °C 3.3 °C 1029.0 hPa West 25.9 km/h 25.9 km/h 76 % 0.0 mm 0.0 W/m2 CLR
22:59 7.2 °C 3.3 °C 1029.0 hPa West 24.1 km/h 24.1 km/h 76 % 0.0 mm 0.0 W/m2 CLR
23:04 7.2 °C 3.3 °C 1029.0 hPa WNW 18.5 km/h 18.5 km/h 76 % 0.0 mm 0.0 W/m2 CLR
23:09 7.2 °C 3.3 °C 1029.0 hPa WNW 25.9 km/h 25.9 km/h 76 % 0.0 mm 0.0 W/m2 CLR
23:14 7.2 °C 3.3 °C 1029.3 hPa WNW 25.9 km/h 25.9 km/h 76 % 0.0 mm 0.0 W/m2 CLR
23:19 7.2 °C 3.3 °C 1029.0 hPa NW 22.2 km/h 22.2 km/h 76 % 0.0 mm 0.0 W/m2 CLR
23:24 7.2 °C 3.3 °C 1029.0 hPa WNW 22.2 km/h 22.2 km/h 76 % 0.0 mm 0.0 W/m2 CLR
23:29 7.2 °C 3.4 °C 1029.0 hPa NW 24.1 km/h 24.1 km/h 77 % 0.0 mm 0.0 W/m2 CLR
23:34 7.2 °C 3.3 °C 1029.0 hPa NW 29.6 km/h 29.6 km/h 76 % 0.0 mm 0.0 W/m2 CLR
23:39 7.2 °C 3.3 °C 1029.3 hPa NW 27.8 km/h 27.8 km/h 76 % 0.0 mm 0.0 W/m2 CLR
23:44 7.2 °C 3.3 °C 1029.0 hPa WNW 27.8 km/h 27.8 km/h 76 % 0.0 mm 0.0 W/m2 CLR
23:49 7.2 °C 3.3 °C 1029.3 hPa NW 29.6 km/h 29.6 km/h 76 % 0.0 mm 0.0 W/m2 CLR
23:54 7.2 °C 3.3 °C 1029.0 hPa NW 27.8 km/h 27.8 km/h 76 % 0.0 mm 0.0 W/m2 CLR
23:59 7.2 °C 3.1 °C 1029.0 hPa WNW 20.4 km/h 20.4 km/h 75 % 0.0 mm 0.0 W/m2 CLR
Lo Temps de Massalio
Compliments of Weather Underground - 1.25 mb